sensor_id;sensor_type;location;lat;lon;timestamp;pressure;altitude;pressure_sealevel;temperature;humidity
20077;BME280;12348;42.710;23.378;2023-11-22T00:02:15;94406.06;;;6.44;100.00
20077;BME280;12348;42.710;23.378;2023-11-22T00:04:42;94403.94;;;6.41;100.00
20077;BME280;12348;42.710;23.378;2023-11-22T00:07:08;94403.31;;;6.49;100.00
20077;BME280;12348;42.710;23.378;2023-11-22T00:09:35;94406.22;;;6.53;100.00
20077;BME280;12348;42.710;23.378;2023-11-22T00:12:05;94417.53;;;6.74;100.00
20077;BME280;12348;42.710;23.378;2023-11-22T00:14:31;94408.56;;;6.65;100.00
20077;BME280;12348;42.710;23.378;2023-11-22T00:16:59;94398.53;;;6.75;100.00
20077;BME280;12348;42.710;23.378;2023-11-22T00:19:27;94394.56;;;6.73;100.00
20077;BME280;12348;42.710;23.378;2023-11-22T00:21:54;94396.44;;;6.72;100.00
20077;BME280;12348;42.710;23.378;2023-11-22T00:24:21;94404.41;;;6.77;100.00
20077;BME280;12348;42.710;23.378;2023-11-22T00:26:47;94395.63;;;6.72;100.00
20077;BME280;12348;42.710;23.378;2023-11-22T00:29:16;94401.81;;;6.67;100.00
20077;BME280;12348;42.710;23.378;2023-11-22T00:31:43;94397.78;;;6.70;100.00
20077;BME280;12348;42.710;23.378;2023-11-22T00:34:10;94382.19;;;6.77;100.00
20077;BME280;12348;42.710;23.378;2023-11-22T00:36:36;94376.28;;;6.80;100.00
20077;BME280;12348;42.710;23.378;2023-11-22T00:39:03;94403.53;;;6.82;100.00
20077;BME280;12348;42.710;23.378;2023-11-22T00:41:30;94400.84;;;6.87;100.00
20077;BME280;12348;42.710;23.378;2023-11-22T00:43:57;94402.91;;;6.90;100.00
20077;BME280;12348;42.710;23.378;2023-11-22T00:46:26;94410.44;;;6.88;100.00
20077;BME280;12348;42.710;23.378;2023-11-22T00:48:53;94401.19;;;6.75;100.00
20077;BME280;12348;42.710;23.378;2023-11-22T00:51:21;94394.41;;;6.88;100.00
20077;BME280;12348;42.710;23.378;2023-11-22T00:53:48;94399.69;;;6.93;100.00
20077;BME280;12348;42.710;23.378;2023-11-22T00:56:15;94408.34;;;6.85;100.00
20077;BME280;12348;42.710;23.378;2023-11-22T00:58:42;94412.94;;;6.79;100.00
20077;BME280;12348;42.710;23.378;2023-11-22T01:01:09;94398.06;;;6.68;100.00
20077;BME280;12348;42.710;23.378;2023-11-22T01:03:38;94383.88;;;6.68;100.00
20077;BME280;12348;42.710;23.378;2023-11-22T01:06:05;94387.34;;;6.68;100.00
20077;BME280;12348;42.710;23.378;2023-11-22T01:08:32;94388.19;;;6.69;100.00
20077;BME280;12348;42.710;23.378;2023-11-22T01:10:59;94374.97;;;6.77;100.00
20077;BME280;12348;42.710;23.378;2023-11-22T01:13:28;94383.28;;;6.76;100.00
20077;BME280;12348;42.710;23.378;2023-11-22T01:15:54;94376.84;;;6.77;100.00
20077;BME280;12348;42.710;23.378;2023-11-22T01:18:21;94369.78;;;6.86;100.00
20077;BME280;12348;42.710;23.378;2023-11-22T01:20:50;94371.97;;;6.84;100.00
20077;BME280;12348;42.710;23.378;2023-11-22T01:23:17;94353.00;;;6.80;100.00
20077;BME280;12348;42.710;23.378;2023-11-22T01:25:43;94359.09;;;6.86;100.00
20077;BME280;12348;42.710;23.378;2023-11-22T01:28:10;94364.66;;;6.90;100.00
20077;BME280;12348;42.710;23.378;2023-11-22T01:30:37;94361.72;;;6.91;100.00
20077;BME280;12348;42.710;23.378;2023-11-22T01:33:04;94367.91;;;6.87;100.00
20077;BME280;12348;42.710;23.378;2023-11-22T01:35:30;94367.00;;;6.96;100.00
20077;BME280;12348;42.710;23.378;2023-11-22T01:38:00;94349.44;;;7.09;100.00
20077;BME280;12348;42.710;23.378;2023-11-22T01:40:29;94344.09;;;7.09;100.00
20077;BME280;12348;42.710;23.378;2023-11-22T01:42:57;94341.38;;;7.14;100.00
20077;BME280;12348;42.710;23.378;2023-11-22T01:45:23;94344.91;;;7.10;100.00
20077;BME280;12348;42.710;23.378;2023-11-22T01:47:50;94338.28;;;7.02;100.00
20077;BME280;12348;42.710;23.378;2023-11-22T01:50:18;94324.91;;;7.02;100.00
20077;BME280;12348;42.710;23.378;2023-11-22T01:52:45;94332.81;;;7.12;100.00
20077;BME280;12348;42.710;23.378;2023-11-22T01:55:14;94335.22;;;7.14;100.00
20077;BME280;12348;42.710;23.378;2023-11-22T01:57:44;94342.72;;;7.12;100.00
20077;BME280;12348;42.710;23.378;2023-11-22T02:00:11;94334.06;;;7.20;100.00
20077;BME280;12348;42.710;23.378;2023-11-22T02:02:40;94346.84;;;7.04;100.00
20077;BME280;12348;42.710;23.378;2023-11-22T02:05:08;94340.69;;;7.03;100.00
20077;BME280;12348;42.710;23.378;2023-11-22T02:07:37;94335.34;;;7.03;100.00
20077;BME280;12348;42.710;23.378;2023-11-22T02:10:06;94322.53;;;7.00;100.00
20077;BME280;12348;42.710;23.378;2023-11-22T02:12:35;94333.31;;;6.95;100.00
20077;BME280;12348;42.710;23.378;2023-11-22T02:15:01;94330.19;;;6.88;100.00
20077;BME280;12348;42.710;23.378;2023-11-22T02:17:29;94334.03;;;6.77;100.00
20077;BME280;12348;42.710;23.378;2023-11-22T02:19:56;94327.91;;;6.76;100.00
20077;BME280;12348;42.710;23.378;2023-11-22T02:22:23;94318.09;;;6.67;100.00
20077;BME280;12348;42.710;23.378;2023-11-22T02:24:51;94327.56;;;6.59;100.00
20077;BME280;12348;42.710;23.378;2023-11-22T02:27:17;94326.06;;;6.48;100.00
20077;BME280;12348;42.710;23.378;2023-11-22T02:29:44;94325.75;;;6.49;100.00
20077;BME280;12348;42.710;23.378;2023-11-22T02:32:11;94319.84;;;6.52;100.00
20077;BME280;12348;42.710;23.378;2023-11-22T02:34:38;94325.75;;;6.49;100.00
20077;BME280;12348;42.710;23.378;2023-11-22T02:37:05;94341.53;;;6.51;100.00
20077;BME280;12348;42.710;23.378;2023-11-22T02:39:41;94342.81;;;6.59;100.00
20077;BME280;12348;42.710;23.378;2023-11-22T02:42:14;94341.72;;;6.60;100.00
20077;BME280;12348;42.710;23.378;2023-11-22T02:44:41;94340.47;;;6.52;100.00
20077;BME280;12348;42.710;23.378;2023-11-22T02:47:07;94331.13;;;6.49;100.00
20077;BME280;12348;42.710;23.378;2023-11-22T02:49:35;94334.47;;;6.60;100.00
20077;BME280;12348;42.710;23.378;2023-11-22T02:52:02;94339.66;;;6.51;100.00
20077;BME280;12348;42.710;23.378;2023-11-22T02:54:29;94337.09;;;6.41;100.00
20077;BME280;12348;42.710;23.378;2023-11-22T02:56:56;94324.81;;;6.40;100.00
20077;BME280;12348;42.710;23.378;2023-11-22T02:59:25;94330.31;;;6.49;100.00
20077;BME280;12348;42.710;23.378;2023-11-22T03:01:51;94337.78;;;6.52;100.00
20077;BME280;12348;42.710;23.378;2023-11-22T03:04:18;94333.22;;;6.52;100.00
20077;BME280;12348;42.710;23.378;2023-11-22T03:06:45;94330.97;;;6.65;100.00
20077;BME280;12348;42.710;23.378;2023-11-22T03:09:12;94330.38;;;6.68;100.00
20077;BME280;12348;42.710;23.378;2023-11-22T03:11:39;94335.28;;;6.61;100.00
20077;BME280;12348;42.710;23.378;2023-11-22T03:14:06;94328.72;;;6.72;100.00
20077;BME280;12348;42.710;23.378;2023-11-22T03:16:38;94334.09;;;6.72;100.00
20077;BME280;12348;42.710;23.378;2023-11-22T03:19:05;94335.69;;;6.73;100.00
20077;BME280;12348;42.710;23.378;2023-11-22T03:21:33;94339.09;;;6.78;100.00
20077;BME280;12348;42.710;23.378;2023-11-22T03:24:02;94343.59;;;6.83;100.00
20077;BME280;12348;42.710;23.378;2023-11-22T03:26:29;94342.31;;;6.80;100.00
20077;BME280;12348;42.710;23.378;2023-11-22T03:28:56;94355.69;;;6.80;100.00
20077;BME280;12348;42.710;23.378;2023-11-22T03:31:23;94363.97;;;6.79;100.00
20077;BME280;12348;42.710;23.378;2023-11-22T03:33:52;94358.91;;;6.77;100.00
20077;BME280;12348;42.710;23.378;2023-11-22T03:36:19;94351.19;;;6.76;100.00
20077;BME280;12348;42.710;23.378;2023-11-22T03:38:47;94351.75;;;6.73;100.00
20077;BME280;12348;42.710;23.378;2023-11-22T03:41:14;94346.91;;;6.75;100.00
20077;BME280;12348;42.710;23.378;2023-11-22T03:43:42;94341.81;;;6.97;100.00
20077;BME280;12348;42.710;23.378;2023-11-22T03:46:09;94334.25;;;7.04;100.00
20077;BME280;12348;42.710;23.378;2023-11-22T03:48:36;94338.13;;;6.93;100.00
20077;BME280;12348;42.710;23.378;2023-11-22T03:51:04;94332.72;;;6.98;100.00
20077;BME280;12348;42.710;23.378;2023-11-22T03:53:31;94333.69;;;7.08;100.00
20077;BME280;12348;42.710;23.378;2023-11-22T03:55:58;94340.16;;;7.01;100.00
20077;BME280;12348;42.710;23.378;2023-11-22T03:58:25;94336.34;;;7.08;100.00
20077;BME280;12348;42.710;23.378;2023-11-22T04:00:52;94328.47;;;7.16;100.00
20077;BME280;12348;42.710;23.378;2023-11-22T04:03:19;94333.59;;;7.13;100.00
20077;BME280;12348;42.710;23.378;2023-11-22T04:05:46;94332.59;;;7.09;100.00
20077;BME280;12348;42.710;23.378;2023-11-22T04:08:14;94350.41;;;7.18;100.00
20077;BME280;12348;42.710;23.378;2023-11-22T04:10:41;94350.25;;;7.10;100.00
20077;BME280;12348;42.710;23.378;2023-11-22T04:13:08;94349.75;;;7.08;100.00
20077;BME280;12348;42.710;23.378;2023-11-22T04:15:35;94363.69;;;7.04;100.00
20077;BME280;12348;42.710;23.378;2023-11-22T04:18:02;94363.19;;;7.02;100.00
20077;BME280;12348;42.710;23.378;2023-11-22T04:20:29;94364.25;;;7.01;100.00
20077;BME280;12348;42.710;23.378;2023-11-22T04:22:56;94384.41;;;6.94;100.00
20077;BME280;12348;42.710;23.378;2023-11-22T04:25:24;94377.13;;;6.99;100.00
20077;BME280;12348;42.710;23.378;2023-11-22T04:27:50;94380.16;;;6.93;100.00
20077;BME280;12348;42.710;23.378;2023-11-22T04:30:17;94384.47;;;6.89;100.00
20077;BME280;12348;42.710;23.378;2023-11-22T04:32:44;94381.56;;;6.85;100.00
20077;BME280;12348;42.710;23.378;2023-11-22T04:35:12;94382.13;;;6.82;100.00
20077;BME280;12348;42.710;23.378;2023-11-22T04:37:38;94382.50;;;6.99;100.00
20077;BME280;12348;42.710;23.378;2023-11-22T04:40:06;94397.75;;;6.99;100.00
20077;BME280;12348;42.710;23.378;2023-11-22T04:42:35;94395.97;;;6.89;100.00
20077;BME280;12348;42.710;23.378;2023-11-22T04:45:03;94395.25;;;6.84;100.00
20077;BME280;12348;42.710;23.378;2023-11-22T04:47:31;94397.53;;;6.95;100.00
20077;BME280;12348;42.710;23.378;2023-11-22T04:49:58;94392.63;;;7.02;100.00
20077;BME280;12348;42.710;23.378;2023-11-22T04:52:25;94389.81;;;7.13;100.00
20077;BME280;12348;42.710;23.378;2023-11-22T04:54:52;94393.88;;;7.10;100.00
20077;BME280;12348;42.710;23.378;2023-11-22T04:57:18;94402.00;;;7.24;100.00
20077;BME280;12348;42.710;23.378;2023-11-22T04:59:48;94405.03;;;7.17;100.00
20077;BME280;12348;42.710;23.378;2023-11-22T05:02:14;94420.28;;;7.17;100.00
20077;BME280;12348;42.710;23.378;2023-11-22T05:04:41;94441.84;;;7.07;100.00
20077;BME280;12348;42.710;23.378;2023-11-22T05:07:09;94442.34;;;7.09;100.00
20077;BME280;12348;42.710;23.378;2023-11-22T05:09:35;94444.56;;;7.01;100.00
20077;BME280;12348;42.710;23.378;2023-11-22T05:12:02;94447.06;;;6.93;100.00
20077;BME280;12348;42.710;23.378;2023-11-22T05:14:29;94447.84;;;6.93;100.00
20077;BME280;12348;42.710;23.378;2023-11-22T05:16:57;94461.63;;;7.05;100.00
20077;BME280;12348;42.710;23.378;2023-11-22T05:19:24;94452.41;;;7.17;100.00
20077;BME280;12348;42.710;23.378;2023-11-22T05:21:51;94460.50;;;7.12;100.00
20077;BME280;12348;42.710;23.378;2023-11-22T05:24:17;94453.03;;;7.09;100.00
20077;BME280;12348;42.710;23.378;2023-11-22T05:26:45;94461.59;;;7.11;100.00
20077;BME280;12348;42.710;23.378;2023-11-22T05:29:11;94459.47;;;7.08;100.00
20077;BME280;12348;42.710;23.378;2023-11-22T05:31:38;94467.97;;;7.15;100.00
20077;BME280;12348;42.710;23.378;2023-11-22T05:34:06;94473.56;;;7.18;100.00
20077;BME280;12348;42.710;23.378;2023-11-22T05:36:33;94474.88;;;7.21;100.00
20077;BME280;12348;42.710;23.378;2023-11-22T05:39:00;94484.72;;;7.25;100.00
20077;BME280;12348;42.710;23.378;2023-11-22T05:41:29;94481.81;;;7.22;100.00
20077;BME280;12348;42.710;23.378;2023-11-22T05:43:56;94491.03;;;7.11;100.00
20077;BME280;12348;42.710;23.378;2023-11-22T05:46:23;94490.03;;;7.07;100.00
20077;BME280;12348;42.710;23.378;2023-11-22T05:48:50;94484.44;;;7.03;100.00
20077;BME280;12348;42.710;23.378;2023-11-22T05:51:19;94496.97;;;7.08;100.00
20077;BME280;12348;42.710;23.378;2023-11-22T05:53:46;94499.88;;;7.11;100.00
20077;BME280;12348;42.710;23.378;2023-11-22T05:56:13;94497.44;;;7.15;100.00
20077;BME280;12348;42.710;23.378;2023-11-22T05:58:40;94505.94;;;7.22;100.00
20077;BME280;12348;42.710;23.378;2023-11-22T06:01:07;94513.72;;;7.18;100.00
20077;BME280;12348;42.710;23.378;2023-11-22T06:03:35;94509.34;;;7.27;100.00
20077;BME280;12348;42.710;23.378;2023-11-22T06:06:03;94506.72;;;7.22;100.00
20077;BME280;12348;42.710;23.378;2023-11-22T06:08:31;94514.28;;;7.39;100.00
20077;BME280;12348;42.710;23.378;2023-11-22T06:10:58;94514.28;;;7.39;100.00
20077;BME280;12348;42.710;23.378;2023-11-22T06:13:25;94518.53;;;7.45;100.00
20077;BME280;12348;42.710;23.378;2023-11-22T06:15:52;94533.97;;;7.53;100.00
20077;BME280;12348;42.710;23.378;2023-11-22T06:18:19;94531.91;;;7.45;100.00
20077;BME280;12348;42.710;23.378;2023-11-22T06:20:46;94537.81;;;7.47;100.00
20077;BME280;12348;42.710;23.378;2023-11-22T06:23:14;94534.59;;;7.45;100.00
20077;BME280;12348;42.710;23.378;2023-11-22T06:25:42;94546.41;;;7.44;100.00
20077;BME280;12348;42.710;23.378;2023-11-22T06:28:09;94548.50;;;7.47;100.00
20077;BME280;12348;42.710;23.378;2023-11-22T06:30:36;94551.19;;;7.47;100.00
20077;BME280;12348;42.710;23.378;2023-11-22T06:33:02;94557.03;;;7.49;100.00
20077;BME280;12348;42.710;23.378;2023-11-22T06:35:29;94556.41;;;7.58;100.00
20077;BME280;12348;42.710;23.378;2023-11-22T06:37:56;94556.16;;;7.59;100.00
20077;BME280;12348;42.710;23.378;2023-11-22T06:40:24;94551.03;;;7.63;100.00
20077;BME280;12348;42.710;23.378;2023-11-22T06:42:52;94544.00;;;7.67;100.00
20077;BME280;12348;42.710;23.378;2023-11-22T06:45:20;94546.63;;;7.72;100.00
20077;BME280;12348;42.710;23.378;2023-11-22T06:47:47;94564.09;;;7.69;100.00
20077;BME280;12348;42.710;23.378;2023-11-22T06:50:15;94572.31;;;7.73;100.00
20077;BME280;12348;42.710;23.378;2023-11-22T06:52:42;94575.06;;;7.68;100.00
20077;BME280;12348;42.710;23.378;2023-11-22T06:55:10;94577.06;;;7.57;100.00
20077;BME280;12348;42.710;23.378;2023-11-22T06:57:37;94579.69;;;7.62;100.00
20077;BME280;12348;42.710;23.378;2023-11-22T07:00:06;94577.97;;;7.71;100.00
20077;BME280;12348;42.710;23.378;2023-11-22T07:02:34;94577.09;;;7.81;100.00
20077;BME280;12348;42.710;23.378;2023-11-22T07:05:02;94576.00;;;7.82;100.00
20077;BME280;12348;42.710;23.378;2023-11-22T07:07:34;94584.56;;;7.84;100.00
20077;BME280;12348;42.710;23.378;2023-11-22T07:10:04;94587.66;;;7.91;100.00
20077;BME280;12348;42.710;23.378;2023-11-22T07:12:31;94586.06;;;7.90;100.00
20077;BME280;12348;42.710;23.378;2023-11-22T07:14:59;94579.84;;;7.95;100.00
20077;BME280;12348;42.710;23.378;2023-11-22T07:17:27;94602.22;;;7.85;100.00
20077;BME280;12348;42.710;23.378;2023-11-22T07:19:54;94596.78;;;7.90;100.00
20077;BME280;12348;42.710;23.378;2023-11-22T07:22:22;94598.28;;;8.01;100.00
20077;BME280;12348;42.710;23.378;2023-11-22T07:24:49;94594.63;;;8.16;100.00
20077;BME280;12348;42.710;23.378;2023-11-22T07:27:17;94591.28;;;8.24;100.00
20077;BME280;12348;42.710;23.378;2023-11-22T07:29:44;94583.47;;;8.28;100.00
20077;BME280;12348;42.710;23.378;2023-11-22T07:32:12;94589.97;;;8.46;100.00
20077;BME280;12348;42.710;23.378;2023-11-22T07:34:40;94590.75;;;8.46;100.00
20077;BME280;12348;42.710;23.378;2023-11-22T07:37:07;94591.41;;;8.38;100.00
20077;BME280;12348;42.710;23.378;2023-11-22T07:39:34;94603.25;;;8.37;100.00
20077;BME280;12348;42.710;23.378;2023-11-22T07:42:02;94608.84;;;8.41;100.00
20077;BME280;12348;42.710;23.378;2023-11-22T07:44:28;94603.91;;;8.48;100.00
20077;BME280;12348;42.710;23.378;2023-11-22T07:46:58;94607.75;;;8.61;100.00
20077;BME280;12348;42.710;23.378;2023-11-22T07:49:26;94615.28;;;8.59;100.00
20077;BME280;12348;42.710;23.378;2023-11-22T07:51:54;94615.09;;;8.55;100.00
20077;BME280;12348;42.710;23.378;2023-11-22T07:54:22;94614.00;;;8.56;100.00
20077;BME280;12348;42.710;23.378;2023-11-22T07:56:48;94611.31;;;8.56;100.00
20077;BME280;12348;42.710;23.378;2023-11-22T07:59:15;94618.16;;;8.43;100.00
20077;BME280;12348;42.710;23.378;2023-11-22T08:01:42;94619.78;;;8.44;100.00
20077;BME280;12348;42.710;23.378;2023-11-22T08:04:10;94632.63;;;8.66;100.00
20077;BME280;12348;42.710;23.378;2023-11-22T08:06:37;94625.09;;;8.68;100.00
20077;BME280;12348;42.710;23.378;2023-11-22T08:09:05;94625.53;;;8.57;100.00
20077;BME280;12348;42.710;23.378;2023-11-22T08:11:34;94623.94;;;8.56;100.00
20077;BME280;12348;42.710;23.378;2023-11-22T08:14:01;94612.44;;;8.50;100.00
20077;BME280;12348;42.710;23.378;2023-11-22T08:16:28;94610.28;;;8.52;100.00
20077;BME280;12348;42.710;23.378;2023-11-22T08:18:55;94622.38;;;8.49;100.00
20077;BME280;12348;42.710;23.378;2023-11-22T08:21:22;94637.13;;;8.52;100.00
20077;BME280;12348;42.710;23.378;2023-11-22T08:23:49;94627.06;;;8.63;100.00
20077;BME280;12348;42.710;23.378;2023-11-22T08:26:17;94625.22;;;8.58;100.00
20077;BME280;12348;42.710;23.378;2023-11-22T08:28:44;94631.47;;;8.72;100.00
20077;BME280;12348;42.710;23.378;2023-11-22T08:31:10;94640.31;;;8.92;100.00
20077;BME280;12348;42.710;23.378;2023-11-22T08:33:39;94629.66;;;8.87;100.00
20077;BME280;12348;42.710;23.378;2023-11-22T08:36:11;94635.00;;;9.06;100.00
20077;BME280;12348;42.710;23.378;2023-11-22T08:38:38;94636.09;;;9.23;100.00
20077;BME280;12348;42.710;23.378;2023-11-22T08:41:07;94645.75;;;9.06;100.00
20077;BME280;12348;42.710;23.378;2023-11-22T08:43:36;94648.88;;;8.94;100.00
20077;BME280;12348;42.710;23.378;2023-11-22T08:46:03;94650.84;;;8.88;100.00
20077;BME280;12348;42.710;23.378;2023-11-22T08:48:35;94656.28;;;9.02;100.00
20077;BME280;12348;42.710;23.378;2023-11-22T08:51:03;94658.59;;;9.09;100.00
20077;BME280;12348;42.710;23.378;2023-11-22T08:53:36;94646.03;;;9.23;100.00
20077;BME280;12348;42.710;23.378;2023-11-22T08:56:03;94646.84;;;9.23;100.00
20077;BME280;12348;42.710;23.378;2023-11-22T08:58:31;94648.41;;;9.25;100.00
20077;BME280;12348;42.710;23.378;2023-11-22T09:01:07;94642.97;;;9.30;100.00
20077;BME280;12348;42.710;23.378;2023-11-22T09:03:35;94647.75;;;9.33;100.00
20077;BME280;12348;42.710;23.378;2023-11-22T09:06:02;94643.84;;;9.25;100.00
20077;BME280;12348;42.710;23.378;2023-11-22T09:08:32;94647.09;;;9.22;100.00
20077;BME280;12348;42.710;23.378;2023-11-22T09:11:00;94648.56;;;9.14;100.00
20077;BME280;12348;42.710;23.378;2023-11-22T09:13:31;94658.50;;;9.33;100.00
20077;BME280;12348;42.710;23.378;2023-11-22T09:15:58;94664.03;;;9.41;100.00
20077;BME280;12348;42.710;23.378;2023-11-22T09:18:26;94663.31;;;9.17;100.00
20077;BME280;12348;42.710;23.378;2023-11-22T09:20:53;94660.91;;;9.34;100.00
20077;BME280;12348;42.710;23.378;2023-11-22T09:23:20;94661.91;;;9.38;100.00
20077;BME280;12348;42.710;23.378;2023-11-22T09:25:47;94673.34;;;9.30;100.00
20077;BME280;12348;42.710;23.378;2023-11-22T09:28:14;94682.91;;;9.36;100.00
20077;BME280;12348;42.710;23.378;2023-11-22T09:30:41;94687.25;;;9.32;100.00
20077;BME280;12348;42.710;23.378;2023-11-22T09:33:09;94673.75;;;9.18;100.00
20077;BME280;12348;42.710;23.378;2023-11-22T09:35:39;94669.75;;;9.35;100.00
20077;BME280;12348;42.710;23.378;2023-11-22T09:38:07;94667.34;;;9.33;100.00
20077;BME280;12348;42.710;23.378;2023-11-22T09:40:40;94676.22;;;9.34;100.00
20077;BME280;12348;42.710;23.378;2023-11-22T09:43:07;94680.47;;;9.54;100.00
20077;BME280;12348;42.710;23.378;2023-11-22T09:45:34;94687.97;;;9.57;100.00
20077;BME280;12348;42.710;23.378;2023-11-22T09:48:12;94681.38;;;9.63;100.00
20077;BME280;12348;42.710;23.378;2023-11-22T09:50:50;94680.22;;;9.69;100.00
20077;BME280;12348;42.710;23.378;2023-11-22T09:53:25;94676.69;;;9.55;100.00
20077;BME280;12348;42.710;23.378;2023-11-22T09:55:57;94670.72;;;9.90;100.00
20077;BME280;12348;42.710;23.378;2023-11-22T09:58:25;94655.00;;;10.11;100.00
20077;BME280;12348;42.710;23.378;2023-11-22T10:00:56;94664.69;;;10.26;100.00
20077;BME280;12348;42.710;23.378;2023-11-22T10:03:25;94662.41;;;10.33;100.00
20077;BME280;12348;42.710;23.378;2023-11-22T10:05:55;94667.59;;;10.30;100.00
20077;BME280;12348;42.710;23.378;2023-11-22T10:08:25;94672.16;;;10.29;100.00
20077;BME280;12348;42.710;23.378;2023-11-22T10:10:53;94675.25;;;10.36;100.00
20077;BME280;12348;42.710;23.378;2023-11-22T10:13:20;94662.56;;;10.09;100.00
20077;BME280;12348;42.710;23.378;2023-11-22T10:15:48;94668.88;;;10.32;100.00
20077;BME280;12348;42.710;23.378;2023-11-22T10:18:15;94657.59;;;10.16;100.00
20077;BME280;12348;42.710;23.378;2023-11-22T10:20:46;94662.19;;;10.16;100.00
20077;BME280;12348;42.710;23.378;2023-11-22T10:23:17;94667.78;;;10.19;100.00
20077;BME280;12348;42.710;23.378;2023-11-22T10:25:45;94670.59;;;10.28;100.00
20077;BME280;12348;42.710;23.378;2023-11-22T10:28:13;94666.66;;;10.20;100.00
20077;BME280;12348;42.710;23.378;2023-11-22T10:30:39;94673.31;;;10.23;100.00
20077;BME280;12348;42.710;23.378;2023-11-22T10:33:09;94666.94;;;10.19;100.00
20077;BME280;12348;42.710;23.378;2023-11-22T10:35:39;94653.50;;;10.19;100.00
20077;BME280;12348;42.710;23.378;2023-11-22T10:38:08;94665.69;;;10.30;100.00
20077;BME280;12348;42.710;23.378;2023-11-22T10:40:37;94663.78;;;10.72;100.00
20077;BME280;12348;42.710;23.378;2023-11-22T10:43:05;94668.25;;;10.77;100.00
20077;BME280;12348;42.710;23.378;2023-11-22T10:45:34;94684.03;;;10.83;100.00
20077;BME280;12348;42.710;23.378;2023-11-22T10:48:03;94676.94;;;10.87;100.00
20077;BME280;12348;42.710;23.378;2023-11-22T10:50:31;94675.22;;;10.91;100.00
20077;BME280;12348;42.710;23.378;2023-11-22T10:52:58;94680.09;;;10.89;100.00
20077;BME280;12348;42.710;23.378;2023-11-22T10:55:27;94675.44;;;10.81;100.00
20077;BME280;12348;42.710;23.378;2023-11-22T10:58:03;94677.59;;;10.93;100.00
20077;BME280;12348;42.710;23.378;2023-11-22T11:00:32;94670.56;;;10.83;100.00
20077;BME280;12348;42.710;23.378;2023-11-22T11:03:00;94670.03;;;10.95;100.00
20077;BME280;12348;42.710;23.378;2023-11-22T11:05:30;94673.91;;;11.03;100.00
20077;BME280;12348;42.710;23.378;2023-11-22T11:08:01;94670.81;;;11.32;100.00
20077;BME280;12348;42.710;23.378;2023-11-22T11:10:32;94669.94;;;11.45;100.00
20077;BME280;12348;42.710;23.378;2023-11-22T11:13:00;94670.50;;;11.56;100.00
20077;BME280;12348;42.710;23.378;2023-11-22T11:15:27;94665.13;;;11.56;100.00
20077;BME280;12348;42.710;23.378;2023-11-22T11:17:55;94669.28;;;11.62;100.00
20077;BME280;12348;42.710;23.378;2023-11-22T11:20:23;94672.88;;;11.80;100.00
20077;BME280;12348;42.710;23.378;2023-11-22T11:22:50;94669.66;;;11.69;100.00
20077;BME280;12348;42.710;23.378;2023-11-22T11:25:17;94674.75;;;11.48;100.00
20077;BME280;12348;42.710;23.378;2023-11-22T11:27:55;94675.16;;;11.41;100.00
20077;BME280;12348;42.710;23.378;2023-11-22T11:30:44;94674.50;;;11.36;100.00
20077;BME280;12348;42.710;23.378;2023-11-22T11:33:12;94667.81;;;11.33;100.00
20077;BME280;12348;42.710;23.378;2023-11-22T11:35:43;94671.34;;;11.43;100.00
20077;BME280;12348;42.710;23.378;2023-11-22T11:38:12;94655.44;;;11.55;100.00
20077;BME280;12348;42.710;23.378;2023-11-22T11:40:40;94658.56;;;11.48;100.00
20077;BME280;12348;42.710;23.378;2023-11-22T11:43:07;94663.53;;;11.55;100.00
20077;BME280;12348;42.710;23.378;2023-11-22T11:45:38;94663.19;;;11.79;100.00
20077;BME280;12348;42.710;23.378;2023-11-22T11:48:13;94669.31;;;11.84;100.00
20077;BME280;12348;42.710;23.378;2023-11-22T11:50:41;94667.19;;;11.81;100.00
20077;BME280;12348;42.710;23.378;2023-11-22T11:53:08;94670.50;;;11.78;100.00
20077;BME280;12348;42.710;23.378;2023-11-22T11:55:35;94668.72;;;11.74;100.00
20077;BME280;12348;42.710;23.378;2023-11-22T11:58:04;94669.19;;;11.76;100.00
20077;BME280;12348;42.710;23.378;2023-11-22T12:00:34;94668.94;;;12.08;100.00
20077;BME280;12348;42.710;23.378;2023-11-22T12:03:06;94668.75;;;12.05;100.00
20077;BME280;12348;42.710;23.378;2023-11-22T12:05:34;94681.66;;;12.08;100.00
20077;BME280;12348;42.710;23.378;2023-11-22T12:08:01;94679.38;;;12.01;100.00
20077;BME280;12348;42.710;23.378;2023-11-22T12:10:28;94679.69;;;12.00;100.00
20077;BME280;12348;42.710;23.378;2023-11-22T12:12:55;94681.72;;;11.94;100.00
20077;BME280;12348;42.710;23.378;2023-11-22T12:15:22;94691.72;;;11.71;100.00
20077;BME280;12348;42.710;23.378;2023-11-22T12:17:49;94689.81;;;11.72;100.00
20077;BME280;12348;42.710;23.378;2023-11-22T12:20:17;94694.59;;;11.75;100.00
20077;BME280;12348;42.710;23.378;2023-11-22T12:22:48;94699.31;;;11.69;100.00
20077;BME280;12348;42.710;23.378;2023-11-22T12:25:15;94699.81;;;11.71;100.00
20077;BME280;12348;42.710;23.378;2023-11-22T12:27:42;94704.09;;;11.72;100.00
20077;BME280;12348;42.710;23.378;2023-11-22T12:30:27;94700.16;;;11.78;100.00
20077;BME280;12348;42.710;23.378;2023-11-22T12:32:55;94696.53;;;11.60;100.00
20077;BME280;12348;42.710;23.378;2023-11-22T12:35:22;94691.72;;;11.49;100.00
20077;BME280;12348;42.710;23.378;2023-11-22T12:37:50;94697.84;;;11.63;100.00
20077;BME280;12348;42.710;23.378;2023-11-22T12:40:20;94706.06;;;11.58;100.00
20077;BME280;12348;42.710;23.378;2023-11-22T12:42:48;94703.78;;;11.74;100.00
20077;BME280;12348;42.710;23.378;2023-11-22T12:45:19;94703.13;;;11.91;100.00
20077;BME280;12348;42.710;23.378;2023-11-22T12:47:47;94704.25;;;11.89;100.00
20077;BME280;12348;42.710;23.378;2023-11-22T12:50:29;94718.09;;;11.97;100.00
20077;BME280;12348;42.710;23.378;2023-11-22T12:52:58;94716.75;;;11.85;100.00